sensor_id;sensor_type;location;lat;lon;timestamp;pressure;altitude;pressure_sealevel;temperature;humidity
23659;BME280;12006;42.666;23.326;2022-11-20T00:00:23;91682.56;;;18.41;100.00
23659;BME280;12006;42.666;23.326;2022-11-20T00:02:49;93137.09;;;18.48;100.00
23659;BME280;12006;42.666;23.326;2022-11-20T00:05:15;83605.56;;;18.51;100.00
23659;BME280;12006;42.666;23.326;2022-11-20T00:07:40;82327.19;;;18.57;100.00
23659;BME280;12006;42.666;23.326;2022-11-20T00:10:06;32123.25;;;18.28;100.00
23659;BME280;12006;42.666;23.326;2022-11-20T00:12:31;9603.56;;;18.04;100.00
23659;BME280;12006;42.666;23.326;2022-11-20T00:14:57;-1115.63;;;17.57;100.00
23659;BME280;12006;42.666;23.326;2022-11-20T00:17:22;-3707.13;;;17.26;100.00
23659;BME280;12006;42.666;23.326;2022-11-20T00:19:48;14463.84;;;17.31;100.00
23659;BME280;12006;42.666;23.326;2022-11-20T00:22:13;59989.38;;;17.82;100.00
23659;BME280;12006;42.666;23.326;2022-11-20T00:24:39;85035.06;;;18.24;100.00
23659;BME280;12006;42.666;23.326;2022-11-20T00:27:04;78576.88;;;18.31;100.00
23659;BME280;12006;42.666;23.326;2022-11-20T00:29:30;72455.25;;;18.43;100.00
23659;BME280;12006;42.666;23.326;2022-11-20T00:31:55;85495.19;;;18.49;100.00
23659;BME280;12006;42.666;23.326;2022-11-20T00:34:20;86543.78;;;18.71;100.00
23659;BME280;12006;42.666;23.326;2022-11-20T00:36:46;81081.06;;;18.83;100.00
23659;BME280;12006;42.666;23.326;2022-11-20T00:39:11;78414.69;;;18.93;100.00
23659;BME280;12006;42.666;23.326;2022-11-20T00:41:36;74646.28;;;18.95;100.00
23659;BME280;12006;42.666;23.326;2022-11-20T00:44:02;69734.78;;;19.00;100.00
23659;BME280;12006;42.666;23.326;2022-11-20T00:46:27;64380.88;;;19.11;100.00
23659;BME280;12006;42.666;23.326;2022-11-20T00:48:53;61173.16;;;19.23;100.00
23659;BME280;12006;42.666;23.326;2022-11-20T00:51:20;53314.47;;;19.29;100.00
23659;BME280;12006;42.666;23.326;2022-11-20T00:53:48;50123.28;;;19.32;100.00
23659;BME280;12006;42.666;23.326;2022-11-20T00:56:16;40523.56;;;19.47;100.00
23659;BME280;12006;42.666;23.326;2022-11-20T00:58:44;39629.41;;;19.42;100.00
23659;BME280;12006;42.666;23.326;2022-11-20T01:03:42;32131.84;;;19.44;100.00
23659;BME280;12006;42.666;23.326;2022-11-20T01:06:21;32477.00;;;19.39;100.00
23659;BME280;12006;42.666;23.326;2022-11-20T01:08:47;30439.53;;;19.36;100.00
23659;BME280;12006;42.666;23.326;2022-11-20T01:11:24;30677.28;;;19.40;100.00
23659;BME280;12006;42.666;23.326;2022-11-20T01:13:51;23135.59;;;19.48;100.00
23659;BME280;12006;42.666;23.326;2022-11-20T01:18:49;20559.50;;;19.47;100.00
23659;BME280;12006;42.666;23.326;2022-11-20T01:21:18;20551.81;;;19.47;100.00
23659;BME280;12006;42.666;23.326;2022-11-20T01:23:44;18497.66;;;19.36;100.00
23659;BME280;12006;42.666;23.326;2022-11-20T01:26:12;16210.47;;;19.40;100.00
23659;BME280;12006;42.666;23.326;2022-11-20T01:28:38;16257.84;;;19.37;100.00
23659;BME280;12006;42.666;23.326;2022-11-20T01:31:34;13787.81;;;19.40;100.00
23659;BME280;12006;42.666;23.326;2022-11-20T01:34:06;14802.28;;;19.30;100.00
23659;BME280;12006;42.666;23.326;2022-11-20T01:36:33;16093.66;;;19.34;100.00
23659;BME280;12006;42.666;23.326;2022-11-20T01:39:01;14951.97;;;19.28;100.00
23659;BME280;12006;42.666;23.326;2022-11-20T01:41:29;16590.03;;;19.23;100.00
23659;BME280;12006;42.666;23.326;2022-11-20T01:44:15;18055.16;;;19.11;100.00
23659;BME280;12006;42.666;23.326;2022-11-20T01:46:57;17047.09;;;19.01;100.00
23659;BME280;12006;42.666;23.326;2022-11-20T01:49:40;15849.00;;;19.10;100.00
23659;BME280;12006;42.666;23.326;2022-11-20T01:52:33;11240.16;;;19.21;100.00
23659;BME280;12006;42.666;23.326;2022-11-20T01:55:10;15425.72;;;19.18;100.00
23659;BME280;12006;42.666;23.326;2022-11-20T01:57:38;17495.91;;;19.01;100.00
23659;BME280;12006;42.666;23.326;2022-11-20T02:00:11;18635.09;;;18.92;100.00
23659;BME280;12006;42.666;23.326;2022-11-20T02:02:37;15635.97;;;18.97;100.00
23659;BME280;12006;42.666;23.326;2022-11-20T02:05:14;18599.81;;;18.86;100.00
23659;BME280;12006;42.666;23.326;2022-11-20T02:07:42;15472.97;;;18.89;100.00
23659;BME280;12006;42.666;23.326;2022-11-20T02:10:08;18645.78;;;18.79;100.00
23659;BME280;12006;42.666;23.326;2022-11-20T02:12:33;18603.19;;;18.74;100.00
23659;BME280;12006;42.666;23.326;2022-11-20T02:15:18;16880.09;;;18.82;100.00
23659;BME280;12006;42.666;23.326;2022-11-20T02:17:43;14243.19;;;18.83;100.00
23659;BME280;12006;42.666;23.326;2022-11-20T02:20:09;9211.13;;;18.97;100.00
23659;BME280;12006;42.666;23.326;2022-11-20T02:22:56;8256.50;;;19.08;100.00
23659;BME280;12006;42.666;23.326;2022-11-20T02:25:26;7790.84;;;19.07;100.00
23659;BME280;12006;42.666;23.326;2022-11-20T02:27:52;10462.88;;;18.96;100.00
23659;BME280;12006;42.666;23.326;2022-11-20T02:30:18;9626.88;;;18.90;100.00
23659;BME280;12006;42.666;23.326;2022-11-20T02:32:44;8082.38;;;19.02;100.00
23659;BME280;12006;42.666;23.326;2022-11-20T02:37:57;2681.03;;;19.09;100.00
23659;BME280;12006;42.666;23.326;2022-11-20T02:40:24;7996.53;;;19.05;100.00
23659;BME280;12006;42.666;23.326;2022-11-20T02:42:54;5644.56;;;19.09;100.00
23659;BME280;12006;42.666;23.326;2022-11-20T02:45:20;2412.13;;;19.13;100.00
23659;BME280;12006;42.666;23.326;2022-11-20T02:47:45;4872.34;;;19.14;100.00
23659;BME280;12006;42.666;23.326;2022-11-20T02:50:11;6069.13;;;19.08;100.00
23659;BME280;12006;42.666;23.326;2022-11-20T02:52:36;7166.50;;;19.16;100.00
23659;BME280;12006;42.666;23.326;2022-11-20T02:55:02;8742.09;;;19.19;100.00
23659;BME280;12006;42.666;23.326;2022-11-20T02:57:27;9717.38;;;19.09;100.00
23659;BME280;12006;42.666;23.326;2022-11-20T02:59:53;11474.03;;;19.09;100.00
23659;BME280;12006;42.666;23.326;2022-11-20T03:02:18;13133.16;;;19.03;100.00
23659;BME280;12006;42.666;23.326;2022-11-20T03:04:44;13326.91;;;19.04;100.00
23659;BME280;12006;42.666;23.326;2022-11-20T03:07:09;15812.59;;;18.99;100.00
23659;BME280;12006;42.666;23.326;2022-11-20T03:09:35;15375.28;;;19.03;100.00
23659;BME280;12006;42.666;23.326;2022-11-20T03:12:00;19698.72;;;18.85;100.00
23659;BME280;12006;42.666;23.326;2022-11-20T03:14:26;18097.81;;;18.87;100.00
23659;BME280;12006;42.666;23.326;2022-11-20T03:16:51;20736.47;;;18.77;100.00
23659;BME280;12006;42.666;23.326;2022-11-20T03:19:17;22958.75;;;18.82;100.00
23659;BME280;12006;42.666;23.326;2022-11-20T03:21:43;21158.47;;;18.86;100.00
23659;BME280;12006;42.666;23.326;2022-11-20T03:24:08;21776.56;;;18.81;100.00
23659;BME280;12006;42.666;23.326;2022-11-20T03:26:33;22915.34;;;18.82;100.00
23659;BME280;12006;42.666;23.326;2022-11-20T03:29:01;23412.75;;;18.81;100.00
23659;BME280;12006;42.666;23.326;2022-11-20T03:31:29;23364.88;;;18.83;100.00
23659;BME280;12006;42.666;23.326;2022-11-20T03:33:56;23882.00;;;18.74;100.00
23659;BME280;12006;42.666;23.326;2022-11-20T03:36:22;24522.09;;;18.84;100.00
23659;BME280;12006;42.666;23.326;2022-11-20T03:38:48;24080.16;;;18.89;100.00
23659;BME280;12006;42.666;23.326;2022-11-20T03:41:19;25165.25;;;18.83;100.00
23659;BME280;12006;42.666;23.326;2022-11-20T03:43:53;26697.53;;;18.76;100.00
23659;BME280;12006;42.666;23.326;2022-11-20T03:46:19;26487.41;;;18.80;100.00
23659;BME280;12006;42.666;23.326;2022-11-20T03:48:45;29203.16;;;18.68;100.00
23659;BME280;12006;42.666;23.326;2022-11-20T03:51:12;31126.31;;;18.64;100.00
23659;BME280;12006;42.666;23.326;2022-11-20T03:53:39;29454.38;;;18.65;100.00
23659;BME280;12006;42.666;23.326;2022-11-20T03:56:04;28619.88;;;18.72;100.00
23659;BME280;12006;42.666;23.326;2022-11-20T03:58:30;30122.34;;;18.71;100.00
23659;BME280;12006;42.666;23.326;2022-11-20T04:00:55;31330.00;;;18.72;100.00
23659;BME280;12006;42.666;23.326;2022-11-20T04:03:21;30687.00;;;18.65;100.00
23659;BME280;12006;42.666;23.326;2022-11-20T04:05:46;27887.06;;;18.79;100.00
23659;BME280;12006;42.666;23.326;2022-11-20T04:08:12;29138.34;;;18.76;100.00
23659;BME280;12006;42.666;23.326;2022-11-20T04:10:37;29416.50;;;18.75;100.00
23659;BME280;12006;42.666;23.326;2022-11-20T04:13:03;29167.88;;;18.69;100.00
23659;BME280;12006;42.666;23.326;2022-11-20T04:15:29;28324.91;;;18.75;100.00
23659;BME280;12006;42.666;23.326;2022-11-20T04:17:54;31495.44;;;18.61;100.00
23659;BME280;12006;42.666;23.326;2022-11-20T04:20:20;33203.56;;;18.56;100.00
23659;BME280;12006;42.666;23.326;2022-11-20T04:22:45;31738.72;;;18.66;100.00
23659;BME280;12006;42.666;23.326;2022-11-20T04:25:10;33448.72;;;18.59;100.00
23659;BME280;12006;42.666;23.326;2022-11-20T04:27:36;31947.63;;;18.65;100.00
23659;BME280;12006;42.666;23.326;2022-11-20T04:30:01;34339.56;;;18.60;100.00
23659;BME280;12006;42.666;23.326;2022-11-20T04:32:27;35739.75;;;18.64;100.00
23659;BME280;12006;42.666;23.326;2022-11-20T04:34:52;38898.84;;;18.54;100.00
23659;BME280;12006;42.666;23.326;2022-11-20T04:37:18;39258.16;;;18.47;100.00
23659;BME280;12006;42.666;23.326;2022-11-20T04:39:44;42423.47;;;18.40;100.00
23659;BME280;12006;42.666;23.326;2022-11-20T04:42:09;42562.13;;;18.54;100.00
23659;BME280;12006;42.666;23.326;2022-11-20T04:44:53;43727.63;;;18.42;100.00
23659;BME280;12006;42.666;23.326;2022-11-20T04:47:19;44648.81;;;18.49;100.00
23659;BME280;12006;42.666;23.326;2022-11-20T04:49:44;45600.31;;;18.42;100.00
23659;BME280;12006;42.666;23.326;2022-11-20T04:52:10;47390.53;;;18.41;100.00
23659;BME280;12006;42.666;23.326;2022-11-20T04:54:35;47748.47;;;18.48;100.00
23659;BME280;12006;42.666;23.326;2022-11-20T04:57:01;48669.09;;;18.44;100.00
23659;BME280;12006;42.666;23.326;2022-11-20T04:59:26;49121.09;;;18.47;100.00
23659;BME280;12006;42.666;23.326;2022-11-20T05:01:52;49118.09;;;18.49;100.00
23659;BME280;12006;42.666;23.326;2022-11-20T05:04:17;46714.91;;;18.43;100.00
23659;BME280;12006;42.666;23.326;2022-11-20T05:06:43;45238.38;;;18.58;100.00
23659;BME280;12006;42.666;23.326;2022-11-20T05:09:08;47516.50;;;18.50;100.00
23659;BME280;12006;42.666;23.326;2022-11-20T05:11:33;48053.56;;;18.51;100.00
23659;BME280;12006;42.666;23.326;2022-11-20T05:13:59;47568.75;;;18.48;100.00
23659;BME280;12006;42.666;23.326;2022-11-20T05:16:25;49413.91;;;18.47;100.00
23659;BME280;12006;42.666;23.326;2022-11-20T05:18:52;53947.09;;;18.35;100.00
23659;BME280;12006;42.666;23.326;2022-11-20T05:21:18;55138.34;;;18.33;100.00
23659;BME280;12006;42.666;23.326;2022-11-20T05:23:45;56244.72;;;18.36;100.00
23659;BME280;12006;42.666;23.326;2022-11-20T05:26:18;60152.88;;;18.32;100.00
23659;BME280;12006;42.666;23.326;2022-11-20T05:28:45;64580.97;;;18.23;100.00
23659;BME280;12006;42.666;23.326;2022-11-20T05:31:13;65771.09;;;18.20;100.00
23659;BME280;12006;42.666;23.326;2022-11-20T05:33:41;66021.19;;;18.20;100.00
23659;BME280;12006;42.666;23.326;2022-11-20T05:36:07;66785.53;;;18.29;100.00
23659;BME280;12006;42.666;23.326;2022-11-20T05:38:33;65798.09;;;18.32;100.00
23659;BME280;12006;42.666;23.326;2022-11-20T05:41:05;67115.13;;;18.33;100.00
23659;BME280;12006;42.666;23.326;2022-11-20T05:43:35;66241.63;;;18.36;100.00
23659;BME280;12006;42.666;23.326;2022-11-20T05:46:01;66857.22;;;18.38;100.00
23659;BME280;12006;42.666;23.326;2022-11-20T05:48:27;67691.59;;;18.34;100.00
23659;BME280;12006;42.666;23.326;2022-11-20T05:50:52;67087.06;;;18.31;100.00
23659;BME280;12006;42.666;23.326;2022-11-20T05:53:18;66205.53;;;18.32;100.00
23659;BME280;12006;42.666;23.326;2022-11-20T05:55:43;66656.03;;;18.24;100.00
23659;BME280;12006;42.666;23.326;2022-11-20T05:58:08;60685.50;;;18.39;100.00
23659;BME280;12006;42.666;23.326;2022-11-20T06:00:34;62005.97;;;18.38;100.00
23659;BME280;12006;42.666;23.326;2022-11-20T06:02:59;60339.88;;;18.39;100.00
23659;BME280;12006;42.666;23.326;2022-11-20T06:05:24;64229.31;;;18.35;100.00
23659;BME280;12006;42.666;23.326;2022-11-20T06:07:50;73400.56;;;18.17;100.00
23659;BME280;12006;42.666;23.326;2022-11-20T06:10:15;74385.97;;;18.22;100.00
23659;BME280;12006;42.666;23.326;2022-11-20T06:12:41;75203.19;;;18.18;100.00
23659;BME280;12006;42.666;23.326;2022-11-20T06:15:06;83025.84;;;18.02;100.00
23659;BME280;12006;42.666;23.326;2022-11-20T06:17:32;89380.72;;;18.01;100.00
23659;BME280;12006;42.666;23.326;2022-11-20T06:19:57;89809.88;;;18.07;100.00
23659;BME280;12006;42.666;23.326;2022-11-20T06:22:23;89549.72;;;17.94;100.00
23659;BME280;12006;42.666;23.326;2022-11-20T06:24:48;86217.53;;;17.77;100.00
23659;BME280;12006;42.666;23.326;2022-11-20T06:27:14;86627.00;;;17.86;100.00
23659;BME280;12006;42.666;23.326;2022-11-20T06:29:39;87391.53;;;17.84;100.00
23659;BME280;12006;42.666;23.326;2022-11-20T06:32:04;92873.47;;;17.84;100.00
23659;BME280;12006;42.666;23.326;2022-11-20T06:34:30;91783.09;;;17.90;100.00
23659;BME280;12006;42.666;23.326;2022-11-20T06:36:55;89930.81;;;18.03;100.00
23659;BME280;12006;42.666;23.326;2022-11-20T06:39:21;94115.59;;;17.95;100.00
23659;BME280;12006;42.666;23.326;2022-11-20T06:41:46;98319.94;;;18.03;100.00
23659;BME280;12006;42.666;23.326;2022-11-20T06:44:11;98765.78;;;18.07;100.00
23659;BME280;12006;42.666;23.326;2022-11-20T06:46:37;99833.78;;;18.13;100.00
23659;BME280;12006;42.666;23.326;2022-11-20T06:49:02;97833.78;;;18.20;100.00
23659;BME280;12006;42.666;23.326;2022-11-20T06:51:27;97149.09;;;18.34;100.00
23659;BME280;12006;42.666;23.326;2022-11-20T06:53:53;96015.03;;;18.45;100.00
23659;BME280;12006;42.666;23.326;2022-11-20T06:56:18;95903.50;;;18.59;100.00
23659;BME280;12006;42.666;23.326;2022-11-20T06:58:44;96133.63;;;18.71;100.00
23659;BME280;12006;42.666;23.326;2022-11-20T07:01:11;96274.91;;;18.62;100.00
23659;BME280;12006;42.666;23.326;2022-11-20T07:03:38;97173.72;;;18.40;100.00
23659;BME280;12006;42.666;23.326;2022-11-20T07:06:04;97976.25;;;18.50;100.00
23659;BME280;12006;42.666;23.326;2022-11-20T07:08:29;98874.53;;;18.45;100.00
23659;BME280;12006;42.666;23.326;2022-11-20T07:11:03;101067.34;;;18.46;100.00
23659;BME280;12006;42.666;23.326;2022-11-20T07:13:29;102576.75;;;18.46;100.00
23659;BME280;12006;42.666;23.326;2022-11-20T07:15:58;94690.47;;;18.61;100.00
23659;BME280;12006;42.666;23.326;2022-11-20T07:18:24;92509.34;;;18.60;100.00
23659;BME280;12006;42.666;23.326;2022-11-20T07:20:49;81024.94;;;18.78;100.00
23659;BME280;12006;42.666;23.326;2022-11-20T07:23:14;84392.50;;;18.68;100.00
23659;BME280;12006;42.666;23.326;2022-11-20T07:25:40;67011.50;;;18.73;100.00
23659;BME280;12006;42.666;23.326;2022-11-20T07:28:05;58436.09;;;18.86;100.00
23659;BME280;12006;42.666;23.326;2022-11-20T07:30:30;53797.75;;;18.95;100.00
23659;BME280;12006;42.666;23.326;2022-11-20T07:32:56;51281.00;;;18.89;100.00
23659;BME280;12006;42.666;23.326;2022-11-20T07:35:23;51465.25;;;18.99;100.00
23659;BME280;12006;42.666;23.326;2022-11-20T07:37:48;51838.22;;;18.99;100.00
23659;BME280;12006;42.666;23.326;2022-11-20T07:40:15;40923.88;;;19.04;100.00
23659;BME280;12006;42.666;23.326;2022-11-20T07:42:54;45315.25;;;19.00;100.00
23659;BME280;12006;42.666;23.326;2022-11-20T07:45:21;41737.22;;;19.11;100.00
23659;BME280;12006;42.666;23.326;2022-11-20T07:47:46;45102.88;;;19.14;100.00
23659;BME280;12006;42.666;23.326;2022-11-20T07:50:12;41147.81;;;19.01;100.00
23659;BME280;12006;42.666;23.326;2022-11-20T07:52:38;45182.91;;;19.01;100.00
23659;BME280;12006;42.666;23.326;2022-11-20T07:55:04;40717.50;;;19.06;100.00
23659;BME280;12006;42.666;23.326;2022-11-20T07:57:30;43806.72;;;19.15;100.00
23659;BME280;12006;42.666;23.326;2022-11-20T07:59:55;50928.97;;;18.98;100.00
23659;BME280;12006;42.666;23.326;2022-11-20T08:02:21;55467.47;;;19.00;100.00
23659;BME280;12006;42.666;23.326;2022-11-20T08:04:46;58277.22;;;18.92;100.00
23659;BME280;12006;42.666;23.326;2022-11-20T08:07:11;62899.34;;;18.85;100.00
23659;BME280;12006;42.666;23.326;2022-11-20T08:09:37;65793.88;;;18.94;100.00
23659;BME280;12006;42.666;23.326;2022-11-20T08:12:02;70626.97;;;19.01;100.00
23659;BME280;12006;42.666;23.326;2022-11-20T08:14:46;67398.28;;;18.95;100.00
23659;BME280;12006;42.666;23.326;2022-11-20T08:17:11;70398.50;;;18.98;100.00
23659;BME280;12006;42.666;23.326;2022-11-20T08:19:37;74484.09;;;18.90;100.00
23659;BME280;12006;42.666;23.326;2022-11-20T08:22:02;79151.41;;;18.70;100.00
23659;BME280;12006;42.666;23.326;2022-11-20T08:24:28;83604.59;;;18.74;100.00
23659;BME280;12006;42.666;23.326;2022-11-20T08:26:53;85052.34;;;18.82;100.00
23659;BME280;12006;42.666;23.326;2022-11-20T08:29:19;86433.31;;;18.77;100.00
23659;BME280;12006;42.666;23.326;2022-11-20T08:31:44;88237.19;;;18.78;100.00
23659;BME280;12006;42.666;23.326;2022-11-20T08:34:10;84683.84;;;18.97;100.00
23659;BME280;12006;42.666;23.326;2022-11-20T08:36:36;79723.28;;;19.15;100.00
23659;BME280;12006;42.666;23.326;2022-11-20T08:39:02;89742.06;;;19.09;100.00
23659;BME280;12006;42.666;23.326;2022-11-20T08:41:29;77845.41;;;19.23;100.00
23659;BME280;12006;42.666;23.326;2022-11-20T08:44:04;80317.66;;;19.19;100.00
23659;BME280;12006;42.666;23.326;2022-11-20T08:46:38;88125.41;;;19.12;100.00
23659;BME280;12006;42.666;23.326;2022-11-20T08:49:07;85106.69;;;19.28;100.00
23659;BME280;12006;42.666;23.326;2022-11-20T08:51:33;86139.56;;;19.15;100.00
23659;BME280;12006;42.666;23.326;2022-11-20T08:53:59;99036.59;;;19.24;100.00
23659;BME280;12006;42.666;23.326;2022-11-20T08:56:25;63785.88;;;19.05;100.00
23659;BME280;12006;42.666;23.326;2022-11-20T08:58:51;90389.66;;;18.61;100.00
23659;BME280;12006;42.666;23.326;2022-11-20T09:01:18;88892.25;;;18.49;100.00
23659;BME280;12006;42.666;23.326;2022-11-20T09:03:44;47045.84;;;18.37;100.00
23659;BME280;12006;42.666;23.326;2022-11-20T09:06:09;24282.28;;;18.39;100.00
23659;BME280;12006;42.666;23.326;2022-11-20T09:08:35;56545.47;;;18.31;100.00
23659;BME280;12006;42.666;23.326;2022-11-20T09:11:01;32773.09;;;18.20;100.00
23659;BME280;12006;42.666;23.326;2022-11-20T09:13:28;-6947.44;;;18.05;100.00
23659;BME280;12006;42.666;23.326;2022-11-20T09:15:55;-18258.94;;;17.80;100.00
23659;BME280;12006;42.666;23.326;2022-11-20T09:18:21;-5324.59;;;17.06;100.00
23659;BME280;12006;42.666;23.326;2022-11-20T09:20:47;-24340.97;;;16.43;100.00
23659;BME280;12006;42.666;23.326;2022-11-20T09:23:12;-24324.22;;;15.94;100.00
23659;BME280;12006;42.666;23.326;2022-11-20T09:25:38;-24317.03;;;15.74;100.00
23659;BME280;12006;42.666;23.326;2022-11-20T09:28:03;-24308.31;;;15.48;100.00
23659;BME280;12006;42.666;23.326;2022-11-20T09:30:29;-24303.00;;;15.33;100.00
23659;BME280;12006;42.666;23.326;2022-11-20T09:32:56;-24297.84;;;15.18;100.00
23659;BME280;12006;42.666;23.326;2022-11-20T09:35:21;-24295.47;;;15.11;100.00
23659;BME280;12006;42.666;23.326;2022-11-20T09:37:47;-24296.31;;;15.14;100.00
23659;BME280;12006;42.666;23.326;2022-11-20T09:40:28;-24301.13;;;15.27;100.00
23659;BME280;12006;42.666;23.326;2022-11-20T09:43:02;-24305.38;;;15.40;100.00
23659;BME280;12006;42.666;23.326;2022-11-20T09:56:20;-24331.41;;;16.15;100.00
23659;BME280;12006;42.666;23.326;2022-11-20T09:58:48;-24340.31;;;16.41;100.00
23659;BME280;12006;42.666;23.326;2022-11-20T10:07:11;-24371.09;;;17.30;100.00
23659;BME280;12006;42.666;23.326;2022-11-20T10:09:40;-24375.88;;;17.44;100.00
23659;BME280;12006;42.666;23.326;2022-11-20T10:12:22;-24366.63;;;17.17;100.00
23659;BME280;12006;42.666;23.326;2022-11-20T10:15:27;-24369.72;;;17.26;100.00
23659;BME280;12006;42.666;23.326;2022-11-20T10:18:11;-24368.34;;;17.22;100.00
23659;BME280;12006;42.666;23.326;2022-11-20T10:21:03;-24363.22;;;17.07;100.00
23659;BME280;12006;42.666;23.326;2022-11-20T10:24:15;-24356.56;;;16.88;100.00
23659;BME280;12006;42.666;23.326;2022-11-20T10:29:48;-24342.88;;;16.48;100.00
23659;BME280;12006;42.666;23.326;2022-11-20T10:32:20;-24346.97;;;16.60;100.00
23659;BME280;12006;42.666;23.326;2022-11-20T10:34:57;-24350.91;;;16.72;100.00
23659;BME280;12006;42.666;23.326;2022-11-20T10:37:26;-24353.63;;;16.80;100.00
23659;BME280;12006;42.666;23.326;2022-11-20T10:42:43;-24354.31;;;16.82;100.00
23659;BME280;12006;42.666;23.326;2022-11-20T10:48:36;-24355.34;;;16.85;100.00
23659;BME280;12006;42.666;23.326;2022-11-20T11:01:21;-24342.00;;;16.46;100.00
23659;BME280;12006;42.666;23.326;2022-11-20T11:03:49;-24346.13;;;16.58;100.00
23659;BME280;12006;42.666;23.326;2022-11-20T11:06:30;-24342.34;;;16.47;100.00
23659;BME280;12006;42.666;23.326;2022-11-20T11:09:01;-24333.44;;;16.21;100.00
23659;BME280;12006;42.666;23.326;2022-11-20T11:11:33;-24313.94;;;15.65;100.00
23659;BME280;12006;42.666;23.326;2022-11-20T11:14:14;-24280.22;;;14.67;100.00
23659;BME280;12006;42.666;23.326;2022-11-20T11:16:52;-24272.84;;;14.46;100.00
23659;BME280;12006;42.666;23.326;2022-11-20T11:19:18;-24267.19;;;14.29;100.00
23659;BME280;12006;42.666;23.326;2022-11-20T11:21:51;-24261.22;;;14.12;100.00
23659;BME280;12006;42.666;23.326;2022-11-20T11:24:26;-24259.66;;;14.07;100.00
23659;BME280;12006;42.666;23.326;2022-11-20T11:26:56;-24253.50;;;13.90;100.00
23659;BME280;12006;42.666;23.326;2022-11-20T11:29:22;-24246.81;;;13.70;100.00
23659;BME280;12006;42.666;23.326;2022-11-20T11:31:49;-24243.91;;;13.62;100.00
23659;BME280;12006;42.666;23.326;2022-11-20T11:34:17;-24240.63;;;13.52;100.00
23659;BME280;12006;42.666;23.326;2022-11-20T11:36:52;-24238.41;;;13.46;100.00
23659;BME280;12006;42.666;23.326;2022-11-20T11:39:20;-24235.84;;;13.38;100.00
23659;BME280;12006;42.666;23.326;2022-11-20T11:41:47;-24235.00;;;13.36;100.00
23659;BME280;12006;42.666;23.326;2022-11-20T11:47:01;-24231.38;;;13.26;100.00
23659;BME280;12006;42.666;23.326;2022-11-20T11:49:28;-24232.75;;;13.30;100.00
23659;BME280;12006;42.666;23.326;2022-11-20T11:52:10;-24231.22;;;13.25;100.00
23659;BME280;12006;42.666;23.326;2022-11-20T11:54:49;-24233.44;;;13.32;100.00
23659;BME280;12006;42.666;23.326;2022-11-20T12:00:25;-24229.50;;;13.20;100.00
23659;BME280;12006;42.666;23.326;2022-11-20T12:05:45;-24234.31;;;13.34;100.00
23659;BME280;12006;42.666;23.326;2022-11-20T12:08:17;-24237.91;;;13.44;100.00
23659;BME280;12006;42.666;23.326;2022-11-20T12:16:50;-24235.31;;;13.37;100.00
23659;BME280;12006;42.666;23.326;2022-11-20T12:19:16;-24235.16;;;13.36;100.00
23659;BME280;12006;42.666;23.326;2022-11-20T12:32:46;-24225.22;;;13.08;100.00
23659;BME280;12006;42.666;23.326;2022-11-20T12:35:30;-24224.19;;;13.05;100.00
23659;BME280;12006;42.666;23.326;2022-11-20T12:49:30;-24231.72;;;13.27;100.00
23659;BME280;12006;42.666;23.326;2022-11-20T13:00:14;-24237.22;;;13.42;100.00
23659;BME280;12006;42.666;23.326;2022-11-20T13:03:24;-24232.06;;;13.28;100.00
23659;BME280;12006;42.666;23.326;2022-11-20T13:06:08;-24226.41;;;13.11;100.00
23659;BME280;12006;42.666;23.326;2022-11-20T13:08:38;-24227.44;;;13.14;100.00
23659;BME280;12006;42.666;23.326;2022-11-20T13:19:14;-24227.28;;;13.14;100.00
23659;BME280;12006;42.666;23.326;2022-11-20T13:21:43;-24229.34;;;13.20;100.00
23659;BME280;12006;42.666;23.326;2022-11-20T13:26:59;-24228.66;;;13.18;100.00
23659;BME280;12006;42.666;23.326;2022-11-20T13:29:24;-24228.81;;;13.18;100.00
23659;BME280;12006;42.666;23.326;2022-11-20T13:31:49;-24230.34;;;13.23;100.00
23659;BME280;12006;42.666;23.326;2022-11-20T13:34:26;-24230.34;;;13.23;100.00
23659;BME280;12006;42.666;23.326;2022-11-20T13:36:54;-24229.00;;;13.19;100.00
23659;BME280;12006;42.666;23.326;2022-11-20T13:41:56;-24231.38;;;13.26;100.00
23659;BME280;12006;42.666;23.326;2022-11-20T13:44:35;-24229.69;;;13.21;100.00
23659;BME280;12006;42.666;23.326;2022-11-20T13:47:04;-24233.09;;;13.31;100.00
23659;BME280;12006;42.666;23.326;2022-11-20T13:52:23;-24239.63;;;13.49;100.00
23659;BME280;12006;42.666;23.326;2022-11-20T14:00:25;-24244.06;;;13.62;100.00
23659;BME280;12006;42.666;23.326;2022-11-20T14:05:36;-24251.25;;;13.83;100.00
23659;BME280;12006;42.666;23.326;2022-11-20T14:08:13;-24254.34;;;13.92;100.00
23659;BME280;12006;42.666;23.326;2022-11-20T14:10:39;-24252.47;;;13.87;100.00
23659;BME280;12006;42.666;23.326;2022-11-20T14:13:17;-24254.34;;;13.92;100.00
23659;BME280;12006;42.666;23.326;2022-11-20T14:15:43;-24257.59;;;14.01;100.00
23659;BME280;12006;42.666;23.326;2022-11-20T14:18:20;-24258.13;;;14.03;100.00
23659;BME280;12006;42.666;23.326;2022-11-20T14:20:47;-24256.06;;;13.97;100.00
23659;BME280;12006;42.666;23.326;2022-11-20T14:23:24;-24256.41;;;13.98;100.00
23659;BME280;12006;42.666;23.326;2022-11-20T14:25:50;-24255.53;;;13.95;100.00
23659;BME280;12006;42.666;23.326;2022-11-20T14:28:34;-24257.78;;;14.02;100.00
23659;BME280;12006;42.666;23.326;2022-11-20T14:30:59;-24255.53;;;13.95;100.00
23659;BME280;12006;42.666;23.326;2022-11-20T14:33:26;-24258.28;;;14.03;100.00
23659;BME280;12006;42.666;23.326;2022-11-20T14:35:56;-24256.75;;;13.99;100.00
23659;BME280;12006;42.666;23.326;2022-11-20T14:38:27;-24252.63;;;13.87;100.00